Time;durP1;ratioP1;P1;durP2;ratioP2;P2;SDS_P1;SDS_P2;PMS_P1;PMS_P2;Temp;Humidity;BMP_temperature;BMP_pressure;BME280_temperature;BME280_humidity;BME280_pressure;Samples;Min_cycle;Max_cycle;Signal;HPM_P1;HPM_P2
2022/12/22 03:28:10;;;;;;;37.53;13.45;;;10.40;99.90;;;;;;5047150;28;20507;-34
2022/12/22 03:30:36;;;;;;;37.67;12.88;;;10.50;99.90;;;;;;5034977;28;20113;-35
2022/12/22 03:33:02;;;;;;;33.92;14.05;;;10.50;99.90;;;;;;5030541;28;20034;-35
2022/12/22 03:35:27;;;;;;;34.50;12.90;;;10.50;99.90;;;;;;5034795;28;20079;-37
2022/12/22 03:37:53;;;;;;;29.50;12.65;;;10.50;99.90;;;;;;5047786;28;20072;-41
2022/12/22 03:40:18;;;;;;;29.77;12.77;;;10.60;99.90;;;;;;5043756;28;20029;-36
2022/12/22 03:48:12;;;;;;;34.80;14.48;;;10.60;99.90;;;;;;5040606;28;20441;-34
2022/12/22 03:50:38;;;;;;;38.33;13.98;;;10.60;99.90;;;;;;5036116;28;20029;-34
2022/12/22 03:53:04;;;;;;;38.08;14.15;;;10.60;99.90;;;;;;5050925;28;20444;-37
2022/12/22 03:55:30;;;;;;;34.35;13.32;;;10.60;99.90;;;;;;5046755;28;20160;-36
2022/12/22 03:57:55;;;;;;;40.75;14.63;;;10.60;99.90;;;;;;5047900;28;20061;-36
2022/12/22 04:00:22;;;;;;;35.42;13.68;;;10.60;99.90;;;;;;5039368;28;20319;-34
2022/12/22 04:02:47;;;;;;;43.20;13.95;;;10.50;99.90;;;;;;5037272;28;20032;-32
2022/12/22 04:05:13;;;;;;;33.03;13.38;;;10.50;99.90;;;;;;5038108;28;20435;-39
2022/12/22 04:07:38;;;;;;;38.65;14.13;;;10.50;99.90;;;;;;5041326;28;20052;-41
2022/12/22 04:12:55;;;;;;;44.30;16.25;;;10.50;99.90;;;;;;5047228;28;20129;-41
2022/12/22 04:15:29;;;;;;;40.50;16.48;;;10.50;99.90;;;;;;5055060;28;20061;-32
2022/12/22 04:17:56;;;;;;;43.38;16.45;;;10.50;99.90;;;;;;5040349;28;20113;-31
2022/12/22 04:20:25;;;;;;;44.33;15.55;;;10.50;99.90;;;;;;5044872;28;20032;-39
2022/12/22 04:22:52;;;;;;;38.92;15.85;;;10.50;99.90;;;;;;5050839;28;20029;-32
2022/12/22 04:25:17;;;;;;;43.67;16.70;;;10.50;99.90;;;;;;5043979;28;20063;-32
2022/12/22 04:27:43;;;;;;;39.95;16.20;;;10.50;99.90;;;;;;5048207;28;20453;-44
2022/12/22 04:30:09;;;;;;;51.45;17.00;;;10.50;99.90;;;;;;5053194;28;20078;-43
2022/12/22 04:32:35;;;;;;;47.83;17.40;;;10.50;99.90;;;;;;5034609;28;20037;-31
2022/12/22 04:35:00;;;;;;;54.47;18.80;;;10.50;99.90;;;;;;5032716;28;20052;-38
2022/12/22 04:37:26;;;;;;;44.70;16.52;;;10.50;99.90;;;;;;5041949;28;20171;-34
2022/12/22 04:39:52;;;;;;;46.63;17.65;;;10.50;99.90;;;;;;5046309;28;20054;-32
2022/12/22 04:42:17;;;;;;;52.65;16.83;;;10.50;99.90;;;;;;5052277;28;20025;-35
2022/12/22 04:44:43;;;;;;;42.05;15.82;;;10.50;99.90;;;;;;5043207;28;20108;-36
2022/12/22 04:47:08;;;;;;;47.83;16.13;;;10.40;99.90;;;;;;5034022;28;20056;-33
2022/12/22 04:49:34;;;;;;;46.75;17.30;;;10.50;99.90;;;;;;5038802;28;20044;-33
2022/12/22 04:52:00;;;;;;;51.97;16.52;;;10.50;99.90;;;;;;5043286;28;20036;-38
2022/12/22 04:54:25;;;;;;;42.25;17.52;;;10.50;99.90;;;;;;5038735;28;20508;-34
2022/12/22 04:56:52;;;;;;;45.42;15.63;;;10.50;99.90;;;;;;5039708;28;20030;-33
2022/12/22 04:59:17;;;;;;;47.75;16.60;;;10.40;99.90;;;;;;5035747;28;20577;-38
2022/12/22 05:01:43;;;;;;;44.85;18.27;;;10.50;99.90;;;;;;5034378;28;20104;-36
2022/12/22 05:04:09;;;;;;;38.28;15.93;;;10.50;99.90;;;;;;5034060;28;20382;-37
2022/12/22 05:06:34;;;;;;;35.60;14.20;;;10.40;99.90;;;;;;5053147;28;20028;-35
2022/12/22 05:09:00;;;;;;;42.65;15.48;;;10.40;99.90;;;;;;5040837;28;20024;-34
2022/12/22 05:11:25;;;;;;;30.33;12.80;;;10.40;99.90;;;;;;5032735;28;20432;-40
2022/12/22 05:13:51;;;;;;;36.30;13.73;;;10.40;99.90;;;;;;5033578;28;20042;-39
2022/12/22 05:16:17;;;;;;;31.35;12.40;;;10.40;99.90;;;;;;5033440;28;20516;-34
2022/12/22 05:18:44;;;;;;;29.17;12.45;;;10.40;99.90;;;;;;5034510;28;20033;-41
2022/12/22 05:21:13;;;;;;;31.13;12.57;;;10.30;99.90;;;;;;5039899;28;20034;-31
2022/12/22 05:23:39;;;;;;;36.15;13.23;;;10.30;99.90;;;;;;5033277;28;20055;-40
2022/12/22 05:26:05;;;;;;;41.67;13.82;;;10.30;99.90;;;;;;5045370;28;20078;-42
2022/12/22 05:28:31;;;;;;;36.70;13.88;;;10.30;99.90;;;;;;5034567;28;20044;-41
2022/12/22 05:31:01;;;;;;;30.60;13.38;;;10.30;99.90;;;;;;5037202;28;20033;-41
2022/12/22 05:33:26;;;;;;;52.22;16.35;;;10.30;99.90;;;;;;5046466;28;20033;-41
2022/12/22 05:35:52;;;;;;;53.45;15.32;;;10.20;99.90;;;;;;5052798;28;20032;-41
2022/12/22 05:38:18;;;;;;;51.90;15.88;;;10.20;99.90;;;;;;5045613;28;20387;-39
2022/12/22 05:40:43;;;;;;;51.88;15.93;;;10.10;99.90;;;;;;5045752;28;20504;-54
2022/12/22 05:43:09;;;;;;;51.08;16.02;;;10.00;99.90;;;;;;5033500;28;20052;-44
2022/12/22 05:45:34;;;;;;;54.35;18.27;;;10.10;99.90;;;;;;5046797;28;20037;-43
2022/12/22 05:48:00;;;;;;;61.00;19.35;;;10.00;99.90;;;;;;5048211;28;20052;-43
2022/12/22 05:50:26;;;;;;;63.22;18.45;;;10.00;99.90;;;;;;5048695;28;20091;-43
2022/12/22 05:52:52;;;;;;;60.08;17.98;;;10.10;99.90;;;;;;5041983;28;20446;-41
2022/12/22 05:55:18;;;;;;;61.25;19.13;;;10.10;99.90;;;;;;5032104;28;20065;-43
2022/12/22 05:57:44;;;;;;;62.25;19.02;;;10.10;99.90;;;;;;5047334;28;20041;-43
2022/12/22 06:00:13;;;;;;;62.08;18.80;;;10.00;99.90;;;;;;5048333;28;20515;-44
2022/12/22 06:02:39;;;;;;;69.18;18.85;;;10.00;99.90;;;;;;5045672;28;20572;-41
2022/12/22 06:05:06;;;;;;;64.85;18.80;;;10.00;99.90;;;;;;5038294;28;20033;-42
2022/12/22 06:07:31;;;;;;;66.70;19.50;;;10.00;99.90;;;;;;5033068;28;20524;-40
2022/12/22 06:09:57;;;;;;;69.80;19.17;;;10.00;99.90;;;;;;5051864;28;20061;-44
2022/12/22 06:12:23;;;;;;;57.63;16.20;;;10.00;99.90;;;;;;5050646;28;20049;-43
2022/12/22 06:14:49;;;;;;;52.22;15.10;;;9.90;99.90;;;;;;5052886;28;20421;-41
2022/12/22 06:17:14;;;;;;;68.35;17.17;;;9.80;99.90;;;;;;5045777;28;20480;-50
2022/12/22 06:19:40;;;;;;;47.35;14.07;;;9.70;99.90;;;;;;5043224;28;20025;-42
2022/12/22 06:22:06;;;;;;;49.50;14.73;;;9.70;99.90;;;;;;5034778;28;20120;-42
2022/12/22 06:24:31;;;;;;;52.58;14.75;;;9.60;99.90;;;;;;5045175;28;20469;-43
2022/12/22 06:26:57;;;;;;;51.10;14.30;;;9.60;99.90;;;;;;5032413;28;20509;-38
2022/12/22 06:29:23;;;;;;;48.03;13.73;;;9.50;99.90;;;;;;5032780;28;20033;-33
2022/12/22 06:31:48;;;;;;;67.05;16.55;;;9.50;99.90;;;;;;5031557;28;20116;-37
2022/12/22 06:34:16;;;;;;;69.18;16.67;;;9.60;99.90;;;;;;5035421;28;20079;-37
2022/12/22 06:36:45;;;;;;;;;;;9.50;99.90;;;;;;5033900;28;20036;-36
2022/12/22 06:39:12;;;;;;;61.40;14.98;;;9.50;99.90;;;;;;5043992;28;19955;-34
2022/12/22 06:44:22;;;;;;;56.13;15.70;;;9.50;99.90;;;;;;5044447;28;20497;-35
2022/12/22 06:46:48;;;;;;;50.30;14.27;;;9.50;99.90;;;;;;5032626;28;20033;-35
2022/12/22 06:49:14;;;;;;;55.30;15.35;;;9.50;99.90;;;;;;5047948;28;20514;-35
2022/12/22 06:51:39;;;;;;;62.35;16.17;;;9.50;99.90;;;;;;5037058;28;20033;-31
2022/12/22 06:54:05;;;;;;;52.83;13.82;;;9.50;99.90;;;;;;5032965;28;20389;-34
2022/12/22 06:56:31;;;;;;;50.78;12.80;;;9.50;99.90;;;;;;5032447;28;20036;-32
2022/12/22 06:58:56;;;;;;;45.08;11.95;;;9.40;99.90;;;;;;5037602;28;20115;-35
2022/12/22 07:01:22;;;;;;;44.53;12.88;;;9.40;99.90;;;;;;5047454;28;20029;-32
2022/12/22 07:03:47;;;;;;;50.70;10.10;;;9.40;99.90;;;;;;5047107;28;20497;-33
2022/12/22 07:06:13;;;;;;;36.40;11.25;;;9.20;99.90;;;;;;5043177;28;20473;-37
2022/12/22 07:08:39;;;;;;;44.13;11.10;;;9.20;99.90;;;;;;5032037;28;20412;-33
2022/12/22 07:11:04;;;;;;;35.00;9.15;;;9.20;99.90;;;;;;5035579;28;20029;-33
2022/12/22 07:13:33;;;;;;;46.15;8.55;;;9.10;99.90;;;;;;5037852;28;20405;-37
2022/12/22 07:16:01;;;;;;;40.72;6.90;;;9.10;99.90;;;;;;5038616;28;20112;-34
2022/12/22 07:18:32;;;;;;;39.08;8.38;;;9.00;99.90;;;;;;5036129;28;20030;-37
2022/12/22 07:20:58;;;;;;;29.67;6.47;;;8.90;99.90;;;;;;5047176;28;20405;-42
2022/12/22 07:23:25;;;;;;;25.23;7.63;;;8.80;99.90;;;;;;5035773;28;20034;-35
2022/12/22 07:25:51;;;;;;;26.13;7.60;;;8.80;99.90;;;;;;5037621;28;20119;-34
2022/12/22 07:28:16;;;;;;;23.98;6.75;;;8.80;99.90;;;;;;5037997;28;20060;-36
2022/12/22 07:30:42;;;;;;;36.30;7.70;;;8.80;99.90;;;;;;5035932;28;20025;-36
2022/12/22 07:33:08;;;;;;;24.65;7.55;;;8.80;99.90;;;;;;5041324;28;20030;-35
2022/12/22 07:35:33;;;;;;;25.30;6.97;;;8.80;99.90;;;;;;5035140;28;20033;-34
2022/12/22 07:38:00;;;;;;;29.73;7.47;;;8.90;99.90;;;;;;5037606;28;20025;-32
2022/12/22 07:40:25;;;;;;;26.95;7.05;;;8.90;99.90;;;;;;5040455;28;20030;-35
2022/12/22 07:42:55;;;;;;;23.60;6.65;;;8.80;99.90;;;;;;5046532;28;20136;-34
2022/12/22 07:45:21;;;;;;;20.35;6.63;;;8.80;99.90;;;;;;5045418;28;20065;-35
2022/12/22 07:47:47;;;;;;;22.55;6.38;;;8.80;99.90;;;;;;5037439;28;20068;-36
2022/12/22 07:50:24;;;;;;;24.48;6.40;;;8.80;99.90;;;;;;5047225;28;20033;-33
2022/12/22 07:52:58;;;;;;;25.48;7.07;;;8.70;99.90;;;;;;5035539;28;20033;-32
2022/12/22 07:55:27;;;;;;;21.75;6.68;;;8.70;99.90;;;;;;5035733;28;20037;-32
2022/12/22 07:57:53;;;;;;;21.35;6.47;;;8.60;99.90;;;;;;5035503;28;20458;-32
2022/12/22 08:00:20;;;;;;;29.58;7.30;;;8.60;99.90;;;;;;5044754;28;20389;-38
2022/12/22 08:02:50;;;;;;;18.63;6.22;;;8.60;99.90;;;;;;5051523;28;20029;-32
2022/12/22 08:05:16;;;;;;;15.23;5.15;;;8.60;99.90;;;;;;5040219;28;20066;-38
2022/12/22 08:07:41;;;;;;;17.40;5.47;;;8.60;99.90;;;;;;5046781;28;20032;-38
2022/12/22 08:10:08;;;;;;;30.55;7.28;;;8.60;99.90;;;;;;5043302;28;20033;-36
2022/12/22 08:12:34;;;;;;;24.17;7.10;;;8.60;99.90;;;;;;5035505;28;20045;-32
2022/12/22 08:15:00;;;;;;;20.55;7.75;;;8.60;99.90;;;;;;5049575;28;20082;-35
2022/12/22 08:17:26;;;;;;;13.68;5.78;;;8.70;99.90;;;;;;5038903;28;20067;-35
2022/12/22 08:19:53;;;;;;;28.73;7.25;;;8.60;99.90;;;;;;5035167;28;20021;-31
2022/12/22 08:22:22;;;;;;;24.98;6.10;;;8.60;99.90;;;;;;5051088;28;20052;-36
2022/12/22 08:24:52;;;;;;;21.73;6.50;;;8.70;99.90;;;;;;5054695;28;20021;-34
2022/12/22 08:27:23;;;;;;;21.70;7.03;;;8.70;99.90;;;;;;5049019;28;20116;-36
2022/12/22 08:29:53;;;;;;;16.75;6.78;;;8.70;99.90;;;;;;5044517;28;20083;-35
2022/12/22 08:32:19;;;;;;;18.35;6.70;;;8.80;99.90;;;;;;5042628;28;20043;-41
2022/12/22 08:34:45;;;;;;;18.65;6.57;;;8.70;99.90;;;;;;5035802;28;20017;-36
2022/12/22 08:37:14;;;;;;;25.25;7.28;;;8.80;99.90;;;;;;5038479;28;20477;-35
2022/12/22 08:39:42;;;;;;;18.35;6.78;;;8.80;99.90;;;;;;5041573;28;20021;-41
2022/12/22 08:42:10;;;;;;;22.10;6.22;;;8.80;99.90;;;;;;5041127;28;20485;-39
2022/12/22 08:44:39;;;;;;;21.02;6.22;;;8.80;99.90;;;;;;5040636;28;20522;-52
2022/12/22 08:47:05;;;;;;;18.30;5.82;;;8.80;99.90;;;;;;5030512;28;20072;-45
2022/12/22 08:49:31;;;;;;;26.52;7.32;;;8.80;99.90;;;;;;5043679;28;20028;-43
2022/12/22 08:51:57;;;;;;;16.10;6.68;;;8.80;99.90;;;;;;5029733;28;20063;-45
2022/12/22 08:54:23;;;;;;;18.70;5.80;;;8.90;99.90;;;;;;5036101;28;20030;-42
2022/12/22 08:56:49;;;;;;;14.23;5.40;;;8.90;99.90;;;;;;5030251;28;20457;-36
2022/12/22 08:59:16;;;;;;;17.30;6.07;;;8.80;99.90;;;;;;5031966;28;20025;-41
2022/12/22 09:01:43;;;;;;;18.70;6.22;;;8.80;99.90;;;;;;5032139;28;20060;-38
2022/12/22 09:04:11;;;;;;;8.68;4.93;;;8.80;99.90;;;;;;5036856;28;20019;-34
2022/12/22 09:06:37;;;;;;;11.80;5.57;;;8.90;99.90;;;;;;5041875;28;20033;-38
2022/12/22 09:09:08;;;;;;;15.93;5.63;;;8.90;99.90;;;;;;5030020;28;20401;-32
2022/12/22 09:11:33;;;;;;;12.57;5.03;;;8.90;99.90;;;;;;5029035;28;20037;-35
2022/12/22 09:14:00;;;;;;;7.95;4.35;;;8.80;99.90;;;;;;5030244;28;20041;-33
2022/12/22 09:16:29;;;;;;;8.05;4.72;;;8.90;99.90;;;;;;5026976;28;20044;-36
2022/12/22 09:18:55;;;;;;;12.10;4.75;;;8.90;99.90;;;;;;5026010;28;20033;-37
2022/12/22 09:21:22;;;;;;;12.23;5.07;;;8.90;99.90;;;;;;5029599;28;20028;-37
2022/12/22 09:23:48;;;;;;;11.75;4.63;;;8.80;99.90;;;;;;5034282;28;20052;-34
2022/12/22 09:26:16;;;;;;;19.38;5.95;;;8.80;99.90;;;;;;5027080;28;20032;-36
2022/12/22 09:28:42;;;;;;;12.23;4.55;;;8.80;99.90;;;;;;5029225;28;20049;-32
2022/12/22 09:31:09;;;;;;;11.10;4.70;;;8.70;99.90;;;;;;5028231;28;20141;-35
2022/12/22 09:33:35;;;;;;;22.60;5.13;;;8.70;99.90;;;;;;5036900;28;20131;-37
2022/12/22 09:36:09;;;;;;;17.90;5.43;;;8.70;99.90;;;;;;5035055;28;20025;-32
2022/12/22 09:38:36;;;;;;;8.52;4.47;;;8.70;99.90;;;;;;5040079;28;20028;-31
2022/12/22 09:41:23;;;;;;;13.15;5.38;;;8.80;99.90;;;;;;5037669;28;20025;-51
2022/12/22 09:43:49;;;;;;;17.48;6.93;;;8.80;99.90;;;;;;5036975;28;20359;-31
2022/12/22 09:46:26;;;;;;;22.50;6.47;;;8.80;99.90;;;;;;5034409;28;20040;-31
2022/12/22 09:48:53;;;;;;;17.10;6.25;;;8.70;99.90;;;;;;5039794;28;20108;-32
2022/12/22 09:51:20;;;;;;;14.35;5.95;;;8.70;99.90;;;;;;5032504;28;20495;-35
2022/12/22 09:53:51;;;;;;;12.13;5.22;;;8.70;99.90;;;;;;5033799;28;20505;-49
2022/12/22 09:56:17;;;;;;;17.10;5.55;;;8.70;99.90;;;;;;5034247;28;20029;-36
2022/12/22 09:58:44;;;;;;;15.00;6.20;;;8.70;99.90;;;;;;5030260;28;20022;-33
2022/12/22 10:01:12;;;;;;;14.18;6.20;;;8.70;99.90;;;;;;5027793;28;20036;-48
2022/12/22 10:03:38;;;;;;;15.95;5.97;;;8.70;99.90;;;;;;5028969;28;20057;-32
2022/12/22 10:06:13;;;;;;;12.32;5.63;;;8.70;99.90;;;;;;5027598;28;20591;-33
2022/12/22 10:08:39;;;;;;;9.20;5.18;;;8.70;99.90;;;;;;5029716;28;20162;-36
2022/12/22 10:11:11;;;;;;;9.50;5.38;;;8.70;99.90;;;;;;5029664;28;20025;-33
2022/12/22 10:13:36;;;;;;;13.55;5.75;;;8.80;99.90;;;;;;5028332;28;20049;-35
2022/12/22 10:16:19;;;;;;;11.20;5.55;;;8.80;99.90;;;;;;5030228;28;20090;-34
2022/12/22 10:19:09;;;;;;;13.57;5.72;;;8.80;99.90;;;;;;5027344;28;20036;-33
2022/12/22 10:21:34;;;;;;;18.33;6.05;;;8.90;99.90;;;;;;5027431;28;20079;-34
2022/12/22 10:24:15;;;;;;;16.92;6.55;;;8.90;99.90;;;;;;5031082;28;20465;-39
2022/12/22 10:26:42;;;;;;;18.10;6.22;;;9.00;99.90;;;;;;5025844;28;20507;-35
2022/12/22 10:29:16;;;;;;;12.77;5.15;;;9.00;99.90;;;;;;5027656;28;20113;-35
2022/12/22 10:32:01;;;;;;;18.50;6.53;;;9.10;99.90;;;;;;5025399;28;20051;-37
2022/12/22 10:34:27;;;;;;;10.50;5.10;;;9.20;99.90;;;;;;5030914;28;20034;-60
2022/12/22 10:36:59;;;;;;;12.85;5.78;;;9.20;99.90;;;;;;5032490;28;21627;-40
2022/12/22 10:39:45;;;;;;;9.80;4.78;;;9.30;99.90;;;;;;5035037;28;20022;-43
2022/12/22 10:42:13;;;;;;;8.75;4.22;;;9.40;99.90;;;;;;5026290;28;20029;-40
2022/12/22 10:44:43;;;;;;;12.77;4.35;;;9.50;99.90;;;;;;5025614;28;20022;-39
2022/12/22 10:47:19;;;;;;;11.80;4.60;;;9.60;99.90;;;;;;5029641;28;20028;-36
2022/12/22 10:49:50;;;;;;;10.43;4.60;;;9.70;99.90;;;;;;5029587;28;20520;-39
2022/12/22 10:52:20;;;;;;;11.77;4.68;;;9.70;99.90;;;;;;5032744;28;20043;-32
2022/12/22 10:54:46;;;;;;;9.82;4.75;;;9.70;99.90;;;;;;5032122;28;20033;-37
2022/12/22 10:57:15;;;;;;;13.75;4.90;;;9.70;99.90;;;;;;5035265;28;20466;-35
2022/12/22 10:59:51;;;;;;;4.70;3.45;;;9.80;99.90;;;;;;5029724;28;20053;-34
2022/12/22 11:02:36;;;;;;;11.45;4.38;;;9.90;99.90;;;;;;5036787;28;20505;-36
2022/12/22 11:05:10;;;;;;;11.88;3.88;;;9.90;99.90;;;;;;5034981;28;20029;-31
2022/12/22 11:07:41;;;;;;;15.60;4.93;;;10.00;99.90;;;;;;5033746;28;20159;-31
2022/12/22 11:10:13;;;;;;;11.50;4.63;;;10.00;99.90;;;;;;5033728;28;20512;-40
2022/12/22 11:13:03;;;;;;;9.30;3.72;;;10.00;99.90;;;;;;5037518;28;20068;-35
2022/12/22 11:15:52;;;;;;;9.07;3.33;;;10.10;99.90;;;;;;5037945;28;20043;-36
2022/12/22 11:18:29;;;;;;;13.43;3.95;;;10.20;99.90;;;;;;5040765;28;20076;-41
2022/12/22 11:21:25;;;;;;;7.18;3.25;;;10.30;99.90;;;;;;5029483;28;20510;-38
2022/12/22 11:24:06;;;;;;;7.50;3.80;;;10.30;99.90;;;;;;5033241;28;20580;-36
2022/12/22 11:26:40;;;;;;;6.10;3.78;;;10.30;99.90;;;;;;5029694;28;20033;-35
2022/12/22 11:29:34;;;;;;;15.57;3.42;;;10.20;99.90;;;;;;5028807;28;20029;-33
2022/12/22 11:32:20;;;;;;;8.80;3.83;;;10.30;99.90;;;;;;5033102;28;20108;-35
2022/12/22 11:35:22;;;;;;;5.60;3.20;;;10.30;99.90;;;;;;5039792;28;20556;-41
2022/12/22 11:38:18;;;;;;;8.30;2.95;;;10.30;99.90;;;;;;5032354;28;20519;-33
2022/12/22 11:40:53;;;;;;;14.85;3.75;;;10.30;99.90;;;;;;5042136;28;20397;-35
2022/12/22 11:43:38;;;;;;;16.77;4.53;;;10.30;99.90;;;;;;5032514;28;20500;-33
2022/12/22 11:46:17;;;;;;;22.20;3.83;;;10.30;99.90;;;;;;5042005;28;20469;-34
2022/12/22 11:49:15;;;;;;;9.52;3.10;;;10.40;99.90;;;;;;5032077;28;20025;-33
2022/12/22 11:51:59;;;;;;;13.20;3.35;;;10.40;99.90;;;;;;5030432;28;20049;-31
2022/12/22 11:54:30;;;;;;;5.18;3.15;;;10.40;99.90;;;;;;5032052;28;20033;-35
2022/12/22 11:57:33;;;;;;;9.80;3.22;;;10.40;99.90;;;;;;5034893;28;20029;-35
2022/12/22 12:00:15;;;;;;;7.03;3.58;;;10.50;99.90;;;;;;5028301;28;20435;-37
2022/12/22 12:03:02;;;;;;;11.60;3.72;;;10.50;99.90;;;;;;5035784;28;20053;-33
2022/12/22 12:06:05;;;;;;;6.18;4.03;;;10.50;99.90;;;;;;5028301;28;20044;-37
2022/12/22 12:08:47;;;;;;;5.63;3.33;;;10.50;99.90;;;;;;5030044;28;20033;-36
2022/12/22 12:11:31;;;;;;;15.05;3.47;;;10.40;99.90;;;;;;5037189;28;20124;-51
2022/12/22 12:14:11;;;;;;;6.28;3.50;;;10.40;99.90;;;;;;5030135;28;20049;-35
2022/12/22 12:16:59;;;;;;;18.58;4.80;;;10.40;99.90;;;;;;5029384;28;20490;-33
2022/12/22 12:19:38;;;;;;;14.48;4.63;;;10.30;99.90;;;;;;5042407;28;20083;-37
2022/12/22 12:22:07;;;;;;;12.00;4.40;;;10.30;99.90;;;;;;5033228;28;20025;-37
2022/12/22 12:24:39;;;;;;;10.52;5.18;;;10.30;99.90;;;;;;5031727;28;20072;-34
2022/12/22 12:27:40;;;;;;;10.05;5.50;;;10.20;99.90;;;;;;5032591;28;20504;-42
2022/12/22 12:30:13;;;;;;;12.13;6.43;;;10.20;99.90;;;;;;5031989;28;20485;-38
2022/12/22 12:32:51;;;;;;;14.05;7.07;;;10.00;99.90;;;;;;5030196;28;20029;-39
2022/12/22 12:35:27;;;;;;;20.35;9.60;;;9.80;99.90;;;;;;5038294;28;20095;-38
2022/12/22 12:37:59;;;;;;;11.13;6.13;;;9.70;99.90;;;;;;5031094;28;20474;-38
2022/12/22 12:40:54;;;;;;;16.90;7.28;;;9.40;99.90;;;;;;5029766;28;20030;-35
2022/12/22 12:43:22;;;;;;;11.77;5.85;;;9.10;99.90;;;;;;5028779;28;20501;-36
2022/12/22 12:45:49;;;;;;;14.85;6.45;;;8.90;99.90;;;;;;5034102;28;20029;-36
2022/12/22 12:48:23;;;;;;;9.60;5.97;;;8.90;99.90;;;;;;5046677;28;20064;-34
2022/12/22 12:50:58;;;;;;;17.10;7.32;;;8.80;99.90;;;;;;5054502;28;20424;-36
2022/12/22 12:53:26;;;;;;;18.63;7.43;;;8.90;99.90;;;;;;5033043;28;20144;-35
2022/12/22 12:55:51;;;;;;;;;;;8.80;99.90;;;;;;5034756;28;20498;-37
2022/12/22 12:58:38;;;;;;;25.92;9.30;;;8.70;99.90;;;;;;5034289;28;20028;-33
2022/12/22 13:01:18;;;;;;;19.83;9.18;;;8.70;99.90;;;;;;5034088;28;20068;-30
2022/12/22 13:03:44;;;;;;;25.55;10.15;;;8.70;99.90;;;;;;5043233;28;20474;-41
2022/12/22 13:06:31;;;;;;;28.13;10.82;;;8.60;99.90;;;;;;5054197;28;20494;-35
2022/12/22 13:09:05;;;;;;;22.38;9.43;;;8.60;99.90;;;;;;5039479;28;20502;-34
2022/12/22 13:11:36;;;;;;;24.15;9.95;;;8.60;99.90;;;;;;5053971;28;20025;-34
2022/12/22 13:14:02;;;;;;;23.08;10.15;;;8.60;99.90;;;;;;5042887;28;20498;-32
2022/12/22 13:16:30;;;;;;;23.20;10.10;;;8.60;99.90;;;;;;5033224;28;20108;-33
2022/12/22 13:18:58;;;;;;;21.83;9.70;;;8.70;99.90;;;;;;5045099;28;20029;-35
2022/12/22 13:21:29;;;;;;;23.20;8.80;;;8.70;99.90;;;;;;5040634;28;20017;-36
2022/12/22 13:23:54;;;;;;;31.27;11.00;;;8.70;99.90;;;;;;5033894;28;20030;-33
2022/12/22 13:26:22;;;;;;;18.38;9.55;;;8.70;99.90;;;;;;5040810;28;20389;-35
2022/12/22 13:28:51;;;;;;;;;;;8.70;99.90;;;;;;5031738;28;20481;-36
2022/12/22 13:31:40;;;;;;;22.73;9.73;;;8.70;99.90;;;;;;5028861;28;20003;-37
2022/12/22 13:34:32;;;;;;;24.25;8.73;;;8.80;99.90;;;;;;5032678;28;20018;-47
2022/12/22 13:37:16;;;;;;;31.98;12.18;;;8.80;99.90;;;;;;5033859;28;20370;-43
2022/12/22 13:39:41;;;;;;;20.83;10.07;;;8.90;99.90;;;;;;5030829;28;20017;-40
2022/12/22 13:42:11;;;;;;;28.45;10.68;;;8.90;99.90;;;;;;5028658;28;20560;-40
2022/12/22 13:44:38;;;;;;;29.40;10.43;;;8.80;99.90;;;;;;5030588;28;20366;-43
2022/12/22 13:47:06;;;;;;;20.98;9.45;;;8.90;99.90;;;;;;5031314;28;20021;-42
2022/12/22 13:49:33;;;;;;;;;;;8.90;99.90;;;;;;5031881;28;21324;-43
2022/12/22 13:52:00;;;;;;;28.50;10.23;;;8.90;99.90;;;;;;5033622;28;19915;-40
2022/12/22 13:54:28;;;;;;;27.52;11.13;;;8.90;99.90;;;;;;5034965;28;20284;-42
2022/12/22 13:56:55;;;;;;;27.92;11.80;;;8.90;99.90;;;;;;5035734;28;20567;-42
2022/12/22 13:59:27;;;;;;;27.05;11.35;;;9.00;99.90;;;;;;5033404;28;20031;-42
2022/12/22 14:02:16;;;;;;;30.48;11.90;;;9.00;99.90;;;;;;5036773;28;20033;-41
2022/12/22 14:04:44;;;;;;;23.80;10.68;;;9.00;99.90;;;;;;5038766;28;20181;-44
2022/12/22 14:07:18;;;;;;;30.25;11.90;;;9.10;99.90;;;;;;5033130;28;20030;-41
2022/12/22 14:09:45;;;;;;;26.60;12.35;;;9.10;99.90;;;;;;5036792;28;20358;-41
2022/12/22 14:12:15;;;;;;;31.83;12.77;;;9.10;99.90;;;;;;5033381;28;20083;-42
2022/12/22 14:14:44;;;;;;;29.52;12.63;;;9.10;99.90;;;;;;5033401;28;20048;-42
2022/12/22 14:17:24;;;;;;;24.70;11.82;;;9.10;99.90;;;;;;5033037;28;20025;-43
2022/12/22 14:19:54;;;;;;;29.15;12.50;;;9.20;99.90;;;;;;5032986;28;20029;-42
2022/12/22 14:22:41;;;;;;;30.63;12.15;;;9.10;99.90;;;;;;5033008;28;20045;-43
2022/12/22 14:25:19;;;;;;;28.27;12.10;;;9.10;99.90;;;;;;5033118;28;20065;-43
2022/12/22 14:27:46;;;;;;;;;;;9.10;99.90;;;;;;5034564;28;20024;-43
2022/12/22 14:30:18;;;;;;;28.73;11.97;;;9.10;99.90;;;;;;5031692;28;20045;-43
2022/12/22 14:32:47;;;;;;;27.73;11.45;;;9.20;99.90;;;;;;5047733;28;20266;-44
2022/12/22 14:35:21;;;;;;;29.63;12.93;;;9.20;99.90;;;;;;5052721;28;20037;-46
2022/12/22 14:37:52;;;;;;;32.00;12.82;;;9.10;99.90;;;;;;5047633;28;20032;-43
2022/12/22 14:40:38;;;;;;;31.10;13.23;;;9.10;99.90;;;;;;5039318;28;20427;-43
2022/12/22 14:43:18;;;;;;;25.98;11.63;;;9.20;99.90;;;;;;5037103;28;20524;-43
2022/12/22 14:45:46;;;;;;;34.35;14.00;;;9.10;99.90;;;;;;5038541;28;20030;-43
2022/12/22 14:48:33;;;;;;;33.92;13.77;;;9.10;99.90;;;;;;5032389;28;20028;-44
2022/12/22 14:51:00;;;;;;;30.40;13.23;;;9.20;99.90;;;;;;5042212;28;20029;-43
2022/12/22 14:53:41;;;;;;;37.60;14.20;;;9.20;99.90;;;;;;5036930;28;20397;-41
2022/12/22 14:56:13;;;;;;;26.58;12.10;;;9.20;99.90;;;;;;5032765;28;20029;-42
2022/12/22 14:58:41;;;;;;;33.20;11.80;;;9.20;99.90;;;;;;5034741;28;20033;-43
2022/12/22 15:01:27;;;;;;;;;;;9.20;99.90;;;;;;5037022;28;20021;-44
2022/12/22 15:04:00;;;;;;;31.60;13.18;;;9.20;99.90;;;;;;5031696;28;19909;-49
2022/12/22 15:06:26;;;;;;;28.63;12.82;;;9.20;99.90;;;;;;5031007;28;20496;-43
2022/12/22 15:09:12;;;;;;;33.10;13.60;;;9.20;99.90;;;;;;5032019;28;20029;-44
2022/12/22 15:11:52;;;;;;;25.17;11.93;;;9.20;99.90;;;;;;5031861;28;20034;-45
2022/12/22 15:14:21;;;;;;;35.85;12.77;;;9.20;99.90;;;;;;5042571;28;20110;-42
2022/12/22 15:16:48;;;;;;;36.80;13.90;;;9.20;99.90;;;;;;5050452;28;20489;-48
2022/12/22 15:19:15;;;;;;;31.52;13.32;;;9.20;99.90;;;;;;5034552;28;20516;-43
2022/12/22 15:21:41;;;;;;;24.48;12.45;;;9.30;99.90;;;;;;5031122;28;20486;-35
2022/12/22 15:24:15;;;;;;;29.48;13.55;;;9.30;99.90;;;;;;5037273;28;20026;-35
2022/12/22 15:26:41;;;;;;;33.15;14.25;;;9.30;99.90;;;;;;5049293;28;20089;-34
2022/12/22 15:29:07;;;;;;;35.80;14.50;;;9.40;99.90;;;;;;5045935;28;20033;-33
2022/12/22 15:31:34;;;;;;;37.05;14.93;;;9.30;99.90;;;;;;5032271;28;20525;-35
2022/12/22 15:34:02;;;;;;;33.50;14.70;;;9.30;99.90;;;;;;5033675;28;20021;-49
2022/12/22 15:36:28;;;;;;;37.28;14.45;;;9.30;99.90;;;;;;5032126;28;20021;-42
2022/12/22 15:38:53;;;;;;;37.53;15.00;;;9.20;99.90;;;;;;5032167;28;20151;-33
2022/12/22 15:41:19;;;;;;;37.08;15.30;;;9.20;99.90;;;;;;5047335;28;20016;-33
2022/12/22 15:43:45;;;;;;;32.13;14.75;;;9.20;99.90;;;;;;5035732;28;20409;-35
2022/12/22 15:46:14;;;;;;;34.00;16.55;;;9.30;99.90;;;;;;5035744;28;20474;-37
2022/12/22 15:48:40;;;;;;;30.83;14.70;;;9.30;99.90;;;;;;5035629;28;20030;-35
2022/12/22 15:51:14;;;;;;;31.63;15.13;;;9.20;99.90;;;;;;5036587;28;20378;-38
2022/12/22 15:53:39;;;;;;;35.40;14.32;;;9.20;99.90;;;;;;5048831;28;20029;-31
2022/12/22 15:56:10;;;;;;;33.50;14.35;;;9.20;99.90;;;;;;5054060;28;20535;-33
2022/12/22 15:58:36;;;;;;;33.33;15.98;;;9.20;99.90;;;;;;5034416;28;20025;-37
2022/12/22 16:01:01;;;;;;;36.47;16.15;;;9.10;99.90;;;;;;5037093;28;20462;-33
2022/12/22 16:03:27;;;;;;;40.05;17.58;;;9.20;99.90;;;;;;5035353;28;20036;-34
2022/12/22 16:05:53;;;;;;;38.50;16.25;;;9.20;99.90;;;;;;5035451;28;20017;-31
2022/12/22 16:08:28;;;;;;;30.88;14.70;;;9.20;99.90;;;;;;5052103;28;20031;-32
2022/12/22 16:10:54;;;;;;;33.70;14.73;;;9.20;99.90;;;;;;5055238;28;20619;-41
2022/12/22 16:13:25;;;;;;;34.40;15.68;;;9.20;99.90;;;;;;5055010;28;20131;-31
2022/12/22 16:15:53;;;;;;;33.58;16.38;;;9.20;99.90;;;;;;5055361;28;20405;-36
2022/12/22 16:18:18;;;;;;;33.58;15.73;;;9.20;99.90;;;;;;5053788;28;20473;-39
2022/12/22 16:20:44;;;;;;;37.08;16.63;;;9.10;99.90;;;;;;5035390;28;20095;-30
2022/12/22 16:23:16;;;;;;;43.63;16.63;;;9.10;99.90;;;;;;5033840;28;20037;-31
2022/12/22 16:25:44;;;;;;;32.88;15.52;;;9.20;99.90;;;;;;5044129;28;20417;-32
2022/12/22 16:28:24;;;;;;;34.27;16.23;;;9.20;99.90;;;;;;5054896;28;20025;-53
2022/12/22 16:30:51;;;;;;;32.35;15.57;;;9.10;99.90;;;;;;5054765;28;20267;-36
2022/12/22 16:33:17;;;;;;;37.58;16.00;;;9.10;99.90;;;;;;5054906;28;20499;-33
2022/12/22 16:35:43;;;;;;;35.67;15.25;;;9.20;99.90;;;;;;5054681;28;20481;-34